createdAt,value
2023-02-11T00:00:17.681Z,-5.05
2023-02-11T00:01:17.655Z,-5.10
2023-02-11T00:02:17.723Z,-5.13
2023-02-11T00:03:17.667Z,-5.22
2023-02-11T00:04:17.670Z,-5.25
2023-02-11T00:05:17.636Z,-5.33
2023-02-11T00:06:17.635Z,-5.42
2023-02-11T00:07:17.587Z,-5.38
2023-02-11T00:08:17.592Z,-5.35
2023-02-11T00:09:17.610Z,-5.31
2023-02-11T00:10:17.607Z,-5.24
2023-02-11T00:11:17.550Z,-5.24
2023-02-11T00:12:17.558Z,-5.28
2023-02-11T00:13:17.535Z,-5.33
2023-02-11T00:14:17.542Z,-5.38
2023-02-11T00:15:17.542Z,-5.39
2023-02-11T00:16:17.645Z,-5.43
2023-02-11T00:17:17.513Z,-5.42
2023-02-11T00:18:17.515Z,-5.38
2023-02-11T00:19:17.532Z,-5.33
2023-02-11T00:20:17.478Z,-5.33
2023-02-11T00:21:17.524Z,-5.36
2023-02-11T00:22:17.521Z,-5.43
2023-02-11T00:23:17.458Z,-5.49
2023-02-11T00:24:17.425Z,-5.53
2023-02-11T00:25:17.475Z,-5.60
2023-02-11T00:26:17.410Z,-5.59
2023-02-11T00:27:17.419Z,-5.53
2023-02-11T00:28:17.448Z,-5.50
2023-02-11T00:29:17.381Z,-5.42
2023-02-11T00:30:17.361Z,-5.47
2023-02-11T00:31:17.501Z,-5.56
2023-02-11T00:32:17.347Z,-5.59
2023-02-11T00:33:17.390Z,-5.63
2023-02-11T00:34:17.366Z,-5.63
2023-02-11T00:35:17.376Z,-5.71
2023-02-11T00:36:17.397Z,-5.74
2023-02-11T00:37:17.301Z,-5.71
2023-02-11T00:38:17.287Z,-5.71
2023-02-11T00:39:17.355Z,-5.68
2023-02-11T00:40:17.286Z,-5.63
2023-02-11T00:41:17.336Z,-5.67
2023-02-11T00:42:17.280Z,-5.70
2023-02-11T00:43:17.240Z,-5.70
2023-02-11T00:44:17.287Z,-5.61
2023-02-11T00:45:17.248Z,-5.56
2023-02-11T00:46:17.469Z,-5.50
2023-02-11T00:47:17.201Z,-5.49
2023-02-11T00:48:17.221Z,-5.53
2023-02-11T00:49:17.230Z,-5.46
2023-02-11T00:50:17.640Z,-5.41
2023-02-11T00:51:17.181Z,-5.42
2023-02-11T00:52:17.144Z,-5.51
2023-02-11T00:53:17.156Z,-5.54
2023-02-11T00:54:17.188Z,-5.56
2023-02-11T00:55:17.131Z,-5.53
2023-02-11T00:56:17.128Z,-5.49
2023-02-11T00:57:17.149Z,-5.46
2023-02-11T00:58:17.110Z,-5.47
2023-02-11T00:59:17.139Z,-5.49
2023-02-11T01:00:17.076Z,-5.51
2023-02-11T01:01:17.103Z,-5.53
2023-02-11T01:02:17.077Z,-5.57
2023-02-11T01:03:17.040Z,-5.57
2023-02-11T01:04:17.086Z,-5.61
2023-02-11T01:05:17.173Z,-5.70
2023-02-11T01:06:17.015Z,-5.71
2023-02-11T01:07:17.037Z,-5.78
2023-02-11T01:08:17.009Z,-5.75
2023-02-11T01:09:16.988Z,-5.78
2023-02-11T01:10:16.987Z,-5.81
2023-02-11T01:11:17.034Z,-5.88
2023-02-11T01:12:16.999Z,-5.92
2023-02-11T01:13:16.976Z,-5.95
2023-02-11T01:14:16.988Z,-6.00
2023-02-11T01:15:16.947Z,-6.08
2023-02-11T01:16:17.016Z,-6.10
2023-02-11T01:17:16.917Z,-6.14
2023-02-11T01:18:16.936Z,-6.18
2023-02-11T01:19:16.915Z,-6.18
2023-02-11T01:20:16.905Z,-6.18
2023-02-11T01:21:16.869Z,-6.18
2023-02-11T01:22:16.906Z,-6.17
2023-02-11T01:23:16.967Z,-6.17
2023-02-11T01:24:16.915Z,-6.17
2023-02-11T01:25:16.835Z,-6.25
2023-02-11T01:26:16.872Z,-6.31
2023-02-11T01:27:16.893Z,-6.29
2023-02-11T01:28:16.886Z,-6.27
2023-02-11T01:29:16.839Z,-6.34
2023-02-11T01:30:16.793Z,-6.39
2023-02-11T01:31:16.947Z,-6.47
2023-02-11T01:32:16.914Z,-6.53
2023-02-11T01:33:16.783Z,-6.53
2023-02-11T01:34:16.765Z,-6.47
2023-02-11T01:35:16.751Z,-6.45
2023-02-11T01:36:16.738Z,-6.40
2023-02-11T01:37:16.746Z,-6.37
2023-02-11T01:38:16.715Z,-6.35
2023-02-11T01:39:16.762Z,-6.35
2023-02-11T01:40:16.696Z,-6.32
2023-02-11T01:41:16.696Z,-6.34
2023-02-11T01:42:16.728Z,-6.39
2023-02-11T01:43:16.696Z,-6.42
2023-02-11T01:44:16.728Z,-6.42
2023-02-11T01:45:16.754Z,-6.46
2023-02-11T01:46:16.712Z,-6.47
2023-02-11T01:47:21.633Z,-6.50
2023-02-11T01:48:16.619Z,-6.53
2023-02-11T01:49:16.851Z,-6.53
2023-02-11T01:50:16.639Z,-6.55
2023-02-11T01:51:16.616Z,-6.59
2023-02-11T01:52:16.612Z,-6.56
2023-02-11T01:53:16.583Z,-6.59
2023-02-11T01:54:16.574Z,-6.61
2023-02-11T01:55:16.585Z,-6.59
2023-02-11T01:56:16.555Z,-6.55
2023-02-11T01:57:16.582Z,-6.50
2023-02-11T01:58:16.549Z,-6.42
2023-02-11T01:59:16.521Z,-6.39
2023-02-11T02:00:16.612Z,-6.35
2023-02-11T02:01:16.556Z,-6.34
2023-02-11T02:02:16.518Z,-6.42
2023-02-11T02:03:16.576Z,-6.49
2023-02-11T02:04:16.491Z,-6.55
2023-02-11T02:05:16.501Z,-6.56
2023-02-11T02:06:16.441Z,-6.52
2023-02-11T02:07:16.423Z,-6.55
2023-02-11T02:08:16.436Z,-6.61
2023-02-11T02:09:16.477Z,-6.65
2023-02-11T02:10:16.476Z,-6.67
2023-02-11T02:11:16.434Z,-6.64
2023-02-11T02:12:16.402Z,-6.55
2023-02-11T02:13:16.391Z,-6.53
2023-02-11T02:14:16.422Z,-6.56
2023-02-11T02:15:16.350Z,-6.65
2023-02-11T02:16:16.475Z,-6.62
2023-02-11T02:17:16.356Z,-6.59
2023-02-11T02:18:16.344Z,-6.61
2023-02-11T02:19:16.321Z,-6.68
2023-02-11T02:20:16.334Z,-6.71
2023-02-11T02:21:16.336Z,-6.69
2023-02-11T02:22:16.323Z,-6.64
2023-02-11T02:23:16.291Z,-6.65
2023-02-11T02:24:16.274Z,-6.65
2023-02-11T02:25:16.357Z,-6.64
2023-02-11T02:26:16.295Z,-6.64
2023-02-11T02:27:16.282Z,-6.64
2023-02-11T02:28:16.528Z,-6.59
2023-02-11T02:29:16.288Z,-6.62
2023-02-11T02:30:16.282Z,-6.64
2023-02-11T02:31:16.223Z,-6.68
2023-02-11T02:32:16.338Z,-6.68
2023-02-11T02:33:23.008Z,-6.62
2023-02-11T02:34:17.197Z,-6.61
2023-02-11T02:35:16.175Z,-6.56
2023-02-11T02:36:16.163Z,-6.59
2023-02-11T02:37:16.170Z,-6.59
2023-02-11T02:38:16.223Z,-6.61
2023-02-11T02:39:16.123Z,-6.65
2023-02-11T02:40:16.124Z,-6.71
2023-02-11T02:41:16.154Z,-6.75
2023-02-11T02:42:16.131Z,-6.82
2023-02-11T02:43:16.079Z,-6.89
2023-02-11T02:44:16.136Z,-6.83
2023-02-11T02:45:16.081Z,-6.79
2023-02-11T02:46:16.171Z,-6.72
2023-02-11T02:47:16.053Z,-6.72
2023-02-11T02:48:16.123Z,-6.74
2023-02-11T02:49:16.035Z,-6.80
2023-02-11T02:50:16.132Z,-6.87
2023-02-11T02:51:16.082Z,-6.85
2023-02-11T02:52:16.021Z,-6.85
2023-02-11T02:53:15.982Z,-6.85
2023-02-11T02:54:15.986Z,-6.86
2023-02-11T02:55:16.122Z,-6.83
2023-02-11T02:56:16.125Z,-6.83
2023-02-11T02:57:15.958Z,-6.83
2023-02-11T02:58:16.036Z,-6.82
2023-02-11T02:59:15.966Z,-6.86
2023-02-11T03:00:15.926Z,-6.85
2023-02-11T03:01:16.041Z,-6.85
2023-02-11T03:02:15.988Z,-6.90
2023-02-11T03:03:15.906Z,-6.90
2023-02-11T03:04:15.958Z,-6.83
2023-02-11T03:05:15.893Z,-6.74
2023-02-11T03:06:15.896Z,-6.72
2023-02-11T03:07:15.847Z,-6.71
2023-02-11T03:08:15.848Z,-6.74
2023-02-11T03:09:15.916Z,-6.72
2023-02-11T03:10:15.864Z,-6.74
2023-02-11T03:11:15.826Z,-6.77
2023-02-11T03:12:15.834Z,-6.83
2023-02-11T03:13:15.858Z,-6.87
2023-02-11T03:14:16.618Z,-6.89
2023-02-11T03:15:15.829Z,-6.93
2023-02-11T03:16:15.833Z,-7.00
2023-02-11T03:17:15.832Z,-6.97
2023-02-11T03:18:15.754Z,-6.89
2023-02-11T03:19:15.747Z,-6.82
2023-02-11T03:20:15.721Z,-6.79
2023-02-11T03:21:15.763Z,-6.74
2023-02-11T03:22:15.715Z,-6.75
2023-02-11T03:23:15.740Z,-6.75
2023-02-11T03:24:15.719Z,-6.71
2023-02-11T03:25:15.697Z,-6.65
2023-02-11T03:26:15.717Z,-6.62
2023-02-11T03:27:15.695Z,-6.56
2023-02-11T03:28:15.736Z,-6.55
2023-02-11T03:29:15.642Z,-6.53
2023-02-11T03:30:15.644Z,-6.55
2023-02-11T03:31:15.887Z,-6.52
2023-02-11T03:32:15.808Z,-6.49
2023-02-11T03:33:15.623Z,-6.42
2023-02-11T03:34:15.694Z,-6.37
2023-02-11T03:35:15.582Z,-6.37
2023-02-11T03:36:15.639Z,-6.40
2023-02-11T03:37:15.583Z,-6.46
2023-02-11T03:38:15.613Z,-6.45
2023-02-11T03:39:15.553Z,-6.45
2023-02-11T03:40:15.540Z,-6.43
2023-02-11T03:41:15.547Z,-6.43
2023-02-11T03:42:15.533Z,-6.40
2023-02-11T03:43:15.541Z,-6.40
2023-02-11T03:44:15.543Z,-6.42
2023-02-11T03:45:15.521Z,-6.45
2023-02-11T03:46:15.499Z,-6.47
2023-02-11T03:47:15.498Z,-6.50
2023-02-11T03:48:15.592Z,-6.55
2023-02-11T03:49:15.487Z,-6.59
2023-02-11T03:50:15.443Z,-6.64
2023-02-11T03:51:15.459Z,-6.64
2023-02-11T03:52:15.469Z,-6.62
2023-02-11T03:53:15.474Z,-6.53
2023-02-11T03:54:15.419Z,-6.52
2023-02-11T03:55:15.406Z,-6.46
2023-02-11T03:56:15.389Z,-6.39
2023-02-11T03:57:15.385Z,-6.27
2023-02-11T03:58:15.369Z,-6.21
2023-02-11T03:59:15.404Z,-6.16
2023-02-11T04:00:15.479Z,-6.18
2023-02-11T04:01:15.380Z,-6.22
2023-02-11T04:02:15.334Z,-6.25
2023-02-11T04:03:15.463Z,-6.31
2023-02-11T04:04:15.327Z,-6.35
2023-02-11T04:05:15.350Z,-6.42
2023-02-11T04:06:15.347Z,-6.47
2023-02-11T04:07:15.282Z,-6.50
2023-02-11T04:08:15.341Z,-6.52
2023-02-11T04:09:15.355Z,-6.55
2023-02-11T04:10:15.249Z,-6.59
2023-02-11T04:11:15.433Z,-6.59
2023-02-11T04:12:15.250Z,-6.61
2023-02-11T04:13:15.261Z,-6.65
2023-02-11T04:14:15.291Z,-6.68
2023-02-11T04:15:15.249Z,-6.68
2023-02-11T04:16:15.226Z,-6.69
2023-02-11T04:17:15.173Z,-6.69
2023-02-11T04:18:15.251Z,-6.72
2023-02-11T04:19:15.152Z,-6.75
2023-02-11T04:20:15.195Z,-6.79
2023-02-11T04:21:15.164Z,-6.82
2023-02-11T04:22:22.648Z,-6.79
2023-02-11T04:23:15.152Z,-6.71
2023-02-11T04:24:15.228Z,-6.69
2023-02-11T04:25:15.139Z,-6.69
2023-02-11T04:26:15.085Z,-6.65
2023-02-11T04:27:15.155Z,-6.64
2023-02-11T04:28:15.170Z,-6.64
2023-02-11T04:29:17.616Z,-6.59
2023-02-11T04:30:15.062Z,-6.61
2023-02-11T04:31:15.273Z,-6.61
2023-02-11T04:32:15.032Z,-6.64
2023-02-11T04:33:15.028Z,-6.65
2023-02-11T04:34:15.073Z,-6.69
2023-02-11T04:35:15.111Z,-6.69
2023-02-11T04:36:15.003Z,-6.71
2023-02-11T04:37:15.024Z,-6.72
2023-02-11T04:38:15.078Z,-6.62
2023-02-11T04:39:14.969Z,-6.49
2023-02-11T04:40:14.954Z,-6.43
2023-02-11T04:41:14.958Z,-6.34
2023-02-11T04:42:15.030Z,-6.31
2023-02-11T04:43:14.944Z,-6.31
2023-02-11T04:44:14.929Z,-6.27
2023-02-11T04:45:14.921Z,-6.25
2023-02-11T04:46:14.929Z,-6.24
2023-02-11T04:47:14.957Z,-6.27
2023-02-11T04:48:14.898Z,-6.27
2023-02-11T04:49:14.896Z,-6.28
2023-02-11T04:50:14.869Z,-6.27
2023-02-11T04:51:14.852Z,-6.24
2023-02-11T04:52:14.944Z,-6.24
2023-02-11T04:53:14.874Z,-6.18
2023-02-11T04:54:14.852Z,-6.16
2023-02-11T04:55:15.140Z,-6.17
2023-02-11T04:56:14.855Z,-6.18
2023-02-11T04:57:14.910Z,-6.18
2023-02-11T04:58:14.827Z,-6.13
2023-02-11T04:59:14.829Z,-6.14
2023-02-11T05:00:14.783Z,-6.14
2023-02-11T05:01:14.816Z,-6.14
2023-02-11T05:02:14.742Z,-6.14
2023-02-11T05:03:14.753Z,-6.16
2023-02-11T05:04:14.882Z,-6.18
2023-02-11T05:05:14.748Z,-6.21
2023-02-11T05:06:14.696Z,-6.17
2023-02-11T05:07:14.707Z,-6.18
2023-02-11T05:08:14.718Z,-6.18
2023-02-11T05:09:14.714Z,-6.13
2023-02-11T05:10:14.682Z,-6.11
2023-02-11T05:11:14.661Z,-6.10
2023-02-11T05:12:14.714Z,-6.10
2023-02-11T05:13:14.661Z,-6.13
2023-02-11T05:14:14.629Z,-6.16
2023-02-11T05:15:14.646Z,-6.18
2023-02-11T05:16:14.663Z,-6.21
2023-02-11T05:17:14.638Z,-6.22
2023-02-11T05:18:14.600Z,-6.24
2023-02-11T05:19:14.586Z,-6.27
2023-02-11T05:20:14.572Z,-6.27
2023-02-11T05:21:14.556Z,-6.28
2023-02-11T05:22:14.680Z,-6.29
2023-02-11T05:23:14.569Z,-6.34
2023-02-11T05:24:14.661Z,-6.34
2023-02-11T05:25:14.518Z,-6.37
2023-02-11T05:26:14.517Z,-6.37
2023-02-11T05:27:14.503Z,-6.37
2023-02-11T05:28:14.589Z,-6.40
2023-02-11T05:29:14.511Z,-6.42
2023-02-11T05:30:14.482Z,-6.39
2023-02-11T05:31:14.727Z,-6.37
2023-02-11T05:32:14.480Z,-6.37
2023-02-11T05:33:14.461Z,-6.34
2023-02-11T05:34:14.557Z,-6.32
2023-02-11T05:35:14.422Z,-6.29
2023-02-11T05:36:14.428Z,-6.29
2023-02-11T05:37:14.476Z,-6.25
2023-02-11T05:38:14.445Z,-6.22
2023-02-11T05:39:14.382Z,-6.18
2023-02-11T05:40:14.422Z,-6.13
2023-02-11T05:41:14.362Z,-6.08
2023-02-11T05:42:14.352Z,-5.99
2023-02-11T05:43:14.362Z,-5.90
2023-02-11T05:44:14.385Z,-5.83
2023-02-11T05:45:15.160Z,-5.74
2023-02-11T05:46:14.370Z,-5.63
2023-02-11T05:47:14.319Z,-5.59
2023-02-11T05:48:14.318Z,-5.54
2023-02-11T05:49:14.338Z,-5.50
2023-02-11T05:50:14.278Z,-5.46
2023-02-11T05:51:14.308Z,-5.42
2023-02-11T05:52:14.254Z,-5.41
2023-02-11T05:53:14.243Z,-5.38
2023-02-11T05:54:14.229Z,-5.38
2023-02-11T05:55:14.338Z,-5.36
2023-02-11T05:56:14.209Z,-5.35
2023-02-11T05:57:14.203Z,-5.32
2023-02-11T05:58:14.190Z,-5.32
2023-02-11T05:59:14.217Z,-5.29
2023-02-11T06:00:14.176Z,-5.25
2023-02-11T06:01:14.217Z,-5.24
2023-02-11T06:02:14.231Z,-5.22
2023-02-11T06:03:14.237Z,-5.22
2023-02-11T06:04:14.134Z,-5.20
2023-02-11T06:05:14.181Z,-5.20
2023-02-11T06:06:14.156Z,-5.18
2023-02-11T06:07:14.196Z,-5.14
2023-02-11T06:08:14.090Z,-5.13
2023-02-11T06:09:14.112Z,-5.09
2023-02-11T06:10:14.075Z,-5.02
2023-02-11T06:11:14.071Z,-5.01
2023-02-11T06:12:14.069Z,-4.98
2023-02-11T06:13:14.135Z,-4.92
2023-02-11T06:14:14.036Z,-4.89
2023-02-11T06:15:14.026Z,-4.87
2023-02-11T06:16:14.119Z,-4.80
2023-02-11T06:17:15.721Z,-4.77
2023-02-11T06:18:14.014Z,-4.74
2023-02-11T06:19:13.983Z,-4.73
2023-02-11T06:20:13.997Z,-4.67
2023-02-11T06:21:13.981Z,-4.64
2023-02-11T06:22:13.967Z,-4.63
2023-02-11T06:23:14.003Z,-4.60
2023-02-11T06:24:13.934Z,-4.57
2023-02-11T06:25:14.623Z,-4.53
2023-02-11T06:26:13.965Z,-4.52
2023-02-11T06:27:13.965Z,-4.48
2023-02-11T06:28:14.085Z,-4.45
2023-02-11T06:29:13.923Z,-4.42
2023-02-11T06:30:13.899Z,-4.41
2023-02-11T06:31:14.034Z,-4.38
2023-02-11T06:32:35.709Z,-4.36
2023-02-11T06:33:14.899Z,-4.35
2023-02-11T06:34:13.839Z,-4.36
2023-02-11T06:35:13.817Z,-4.38
2023-02-11T06:36:13.812Z,-4.36
2023-02-11T06:37:13.802Z,-4.38
2023-02-11T06:38:13.830Z,-4.34
2023-02-11T06:39:13.782Z,-4.31
2023-02-11T06:40:13.809Z,-4.28
2023-02-11T06:41:13.805Z,-4.28
2023-02-11T06:42:13.758Z,-4.27
2023-02-11T06:43:13.799Z,-4.25
2023-02-11T06:44:13.729Z,-4.25
2023-02-11T06:45:13.747Z,-4.24
2023-02-11T06:46:13.774Z,-4.24
2023-02-11T06:47:13.703Z,-4.24
2023-02-11T06:48:13.703Z,-4.23
2023-02-11T06:49:13.734Z,-4.23
2023-02-11T06:50:13.685Z,-4.21
2023-02-11T06:51:13.690Z,-4.24
2023-02-11T06:52:13.671Z,-4.24
2023-02-11T06:53:13.650Z,-4.21
2023-02-11T06:54:13.678Z,-4.24
2023-02-11T06:55:13.660Z,-4.23
2023-02-11T06:56:13.624Z,-4.21
2023-02-11T06:57:13.614Z,-4.20
2023-02-11T06:58:13.627Z,-4.20
2023-02-11T06:59:13.604Z,-4.18
2023-02-11T07:00:13.580Z,-4.17
2023-02-11T07:01:13.570Z,-4.15
2023-02-11T07:02:13.633Z,-4.12
2023-02-11T07:03:13.739Z,-4.10
2023-02-11T07:04:13.666Z,-4.06
2023-02-11T07:05:13.549Z,-4.03
2023-02-11T07:06:13.517Z,-3.97
2023-02-11T07:07:13.507Z,-3.92
2023-02-11T07:08:13.497Z,-3.89
2023-02-11T07:09:13.512Z,-3.84
2023-02-11T07:10:13.491Z,-3.81
2023-02-11T07:11:13.493Z,-3.79
2023-02-11T07:12:13.461Z,-3.77
2023-02-11T07:13:13.452Z,-3.74
2023-02-11T07:14:13.438Z,-3.77
2023-02-11T07:15:13.464Z,-3.78
2023-02-11T07:16:13.574Z,-3.79
2023-02-11T07:17:13.407Z,-3.82
2023-02-11T07:18:14.749Z,-3.84
2023-02-11T07:19:13.380Z,-3.82
2023-02-11T07:20:13.377Z,-3.84
2023-02-11T07:21:13.400Z,-3.87
2023-02-11T07:22:13.365Z,-3.87
2023-02-11T07:23:13.355Z,-3.87
2023-02-11T07:24:13.356Z,-3.88
2023-02-11T07:25:13.327Z,-3.88
2023-02-11T07:26:13.362Z,-3.88
2023-02-11T07:27:13.331Z,-3.85
2023-02-11T07:28:13.344Z,-3.82
2023-02-11T07:29:13.279Z,-3.81
2023-02-11T07:30:13.271Z,-3.78
2023-02-11T07:31:13.451Z,-3.74
2023-02-11T07:32:13.412Z,-3.77
2023-02-11T07:33:13.255Z,-3.72
2023-02-11T07:34:13.238Z,-3.70
2023-02-11T07:35:13.232Z,-3.69
2023-02-11T07:36:13.224Z,-3.66
2023-02-11T07:37:13.288Z,-3.63
2023-02-11T07:38:13.192Z,-3.59
2023-02-11T07:39:13.181Z,-3.54
2023-02-11T07:40:13.209Z,-3.47
2023-02-11T07:41:13.166Z,-3.39
2023-02-11T07:42:13.152Z,-3.38
2023-02-11T07:43:13.208Z,-3.33
2023-02-11T07:44:13.137Z,-3.24
2023-02-11T07:45:13.128Z,-3.15
2023-02-11T07:46:13.126Z,-3.08
2023-02-11T07:47:13.105Z,-3.02
2023-02-11T07:48:13.144Z,-3.02
2023-02-11T07:49:13.077Z,-3.03
2023-02-11T07:50:13.083Z,-2.98
2023-02-11T07:51:13.101Z,-2.94
2023-02-11T07:52:13.059Z,-2.84
2023-02-11T07:53:13.066Z,-2.76
2023-02-11T07:54:13.095Z,-2.69
2023-02-11T07:55:13.048Z,-2.66
2023-02-11T07:56:13.073Z,-2.63
2023-02-11T07:57:12.999Z,-2.54
2023-02-11T07:58:12.995Z,-2.43
2023-02-11T07:59:12.985Z,-2.33
2023-02-11T08:00:12.965Z,-2.24
2023-02-11T08:01:13.074Z,-2.22
2023-02-11T08:02:13.043Z,-2.19
2023-02-11T08:03:12.946Z,-2.16
2023-02-11T08:04:12.953Z,-2.04
2023-02-11T08:05:12.989Z,-1.91
2023-02-11T08:06:12.907Z,-1.86
2023-02-11T08:07:12.906Z,-1.79
2023-02-11T08:08:12.901Z,-1.67
2023-02-11T08:09:12.909Z,-1.57
2023-02-11T08:10:12.873Z,-1.52
2023-02-11T08:11:12.900Z,-1.36
2023-02-11T08:12:12.867Z,-1.29
2023-02-11T08:13:12.852Z,-1.25
2023-02-11T08:14:12.890Z,-1.21
2023-02-11T08:15:12.852Z,-1.26
2023-02-11T08:16:12.876Z,-1.36
2023-02-11T08:17:12.807Z,-1.33
2023-02-11T08:18:12.797Z,-1.29
2023-02-11T08:19:12.828Z,-1.29
2023-02-11T08:20:12.774Z,-1.33
2023-02-11T08:21:12.780Z,-1.29
2023-02-11T08:22:12.777Z,-1.13
2023-02-11T08:23:12.778Z,-0.81
2023-02-11T08:24:12.764Z,-0.71
2023-02-11T08:25:12.768Z,-0.68
2023-02-11T08:26:12.739Z,-0.64
2023-02-11T08:27:12.744Z,-0.34
2023-02-11T08:28:12.778Z,-0.01
2023-02-11T08:29:12.724Z,1.06
2023-02-11T08:30:12.678Z,1.77
2023-02-11T08:31:12.731Z,2.37
2023-02-11T08:32:12.648Z,2.96
2023-02-11T08:33:12.634Z,2.47
2023-02-11T08:34:12.612Z,3.02
2023-02-11T08:35:12.649Z,3.17
2023-02-11T08:36:12.629Z,2.55
2023-02-11T08:37:12.636Z,2.14
2023-02-11T08:38:12.624Z,1.26
2023-02-11T08:39:19.319Z,0.87
2023-02-11T08:40:13.587Z,1.00
2023-02-11T08:41:12.609Z,1.09
2023-02-11T08:42:12.548Z,1.26
2023-02-11T08:43:12.528Z,1.28
2023-02-11T08:44:12.516Z,1.12
2023-02-11T08:45:12.608Z,0.87
2023-02-11T08:46:12.574Z,0.72
2023-02-11T08:47:12.484Z,1.05
2023-02-11T08:48:12.498Z,1.24
2023-02-11T08:49:12.539Z,1.09
2023-02-11T08:50:12.488Z,1.09
2023-02-11T08:51:12.504Z,1.42
2023-02-11T08:52:12.431Z,1.73
2023-02-11T08:53:12.441Z,1.81
2023-02-11T08:54:12.438Z,1.87
2023-02-11T08:55:12.469Z,2.00
2023-02-11T08:56:13.595Z,2.06
2023-02-11T08:57:12.407Z,1.78
2023-02-11T08:58:12.377Z,1.75
2023-02-11T08:59:12.384Z,1.66
2023-02-11T09:00:12.353Z,1.73
2023-02-11T09:01:12.442Z,1.75
2023-02-11T09:02:12.363Z,1.85
2023-02-11T09:03:12.313Z,1.81
2023-02-11T09:04:12.325Z,1.71
2023-02-11T09:05:12.316Z,1.69
2023-02-11T09:06:12.324Z,1.63
2023-02-11T09:07:12.263Z,1.67
2023-02-11T09:08:12.266Z,1.64
2023-02-11T09:09:12.282Z,1.55
2023-02-11T09:10:12.300Z,1.53
2023-02-11T09:11:12.283Z,1.57
2023-02-11T09:12:12.220Z,1.48
2023-02-11T09:13:12.287Z,1.49
2023-02-11T09:14:12.211Z,1.38
2023-02-11T09:15:12.216Z,1.30
2023-02-11T09:16:12.281Z,1.31
2023-02-11T09:17:12.212Z,1.38
2023-02-11T09:18:12.161Z,1.44
2023-02-11T09:19:12.163Z,1.48
2023-02-11T09:20:12.138Z,1.53
2023-02-11T09:21:12.133Z,1.66
2023-02-11T09:22:12.193Z,1.75
2023-02-11T09:23:19.699Z,1.87
2023-02-11T09:24:12.108Z,1.85
2023-02-11T09:25:12.125Z,1.95
2023-02-11T09:26:12.076Z,1.99
2023-02-11T09:27:12.075Z,2.03
2023-02-11T09:28:12.202Z,2.18
2023-02-11T09:29:12.063Z,2.33
2023-02-11T09:30:12.063Z,2.19
2023-02-11T09:31:12.172Z,2.28
2023-02-11T09:32:12.261Z,2.24
2023-02-11T09:33:12.005Z,1.99
2023-02-11T09:34:12.046Z,1.92
2023-02-11T09:35:11.988Z,2.07
2023-02-11T09:36:12.002Z,2.29
2023-02-11T09:37:11.951Z,2.43
2023-02-11T09:38:11.946Z,2.68
2023-02-11T09:39:12.105Z,3.02
2023-02-11T09:40:11.963Z,3.32
2023-02-11T09:41:11.960Z,3.56
2023-02-11T09:42:11.906Z,3.56
2023-02-11T09:43:11.963Z,3.87
2023-02-11T09:44:11.928Z,4.03
2023-02-11T09:45:11.945Z,3.98
2023-02-11T09:46:12.088Z,4.23
2023-02-11T09:47:11.882Z,4.38
2023-02-11T09:48:11.852Z,4.24
2023-02-11T09:49:11.884Z,4.31
2023-02-11T09:50:11.840Z,4.35
2023-02-11T09:51:11.861Z,4.12
2023-02-11T09:52:11.817Z,4.21
2023-02-11T09:53:11.842Z,3.96
2023-02-11T09:54:11.795Z,3.54
2023-02-11T09:55:11.851Z,3.60
2023-02-11T09:56:11.765Z,3.63
2023-02-11T09:57:26.520Z,3.78
2023-02-11T09:58:12.761Z,3.78
2023-02-11T09:59:11.738Z,3.70
2023-02-11T10:00:11.773Z,3.70
2023-02-11T10:01:11.758Z,3.67
2023-02-11T10:02:11.722Z,3.69
2023-02-11T10:03:11.717Z,3.55
2023-02-11T10:04:11.730Z,3.52
2023-02-11T10:05:11.724Z,3.56
2023-02-11T10:06:11.655Z,3.74
2023-02-11T10:07:11.637Z,3.87
2023-02-11T10:08:11.679Z,3.96
2023-02-11T10:09:11.638Z,4.06
2023-02-11T10:10:11.607Z,4.08
2023-02-11T10:11:22.674Z,4.41
2023-02-11T10:12:12.598Z,4.59
2023-02-11T10:13:11.605Z,4.82
2023-02-11T10:14:11.568Z,5.21
2023-02-11T10:15:11.561Z,5.52
2023-02-11T10:16:11.627Z,5.93
2023-02-11T10:17:11.621Z,6.15
2023-02-11T10:18:11.526Z,6.24
2023-02-11T10:19:11.521Z,6.28
2023-02-11T10:20:11.571Z,6.25
2023-02-11T10:21:11.533Z,5.85
2023-02-11T10:22:11.511Z,4.88
2023-02-11T10:23:11.536Z,5.21
2023-02-11T10:24:11.475Z,5.66
2023-02-11T10:25:11.455Z,6.06
2023-02-11T10:26:11.449Z,6.24
2023-02-11T10:27:11.476Z,6.32
2023-02-11T10:28:11.493Z,6.61
2023-02-11T10:29:11.415Z,6.85
2023-02-11T10:30:11.399Z,6.81
2023-02-11T10:31:11.606Z,6.82
2023-02-11T10:32:11.479Z,6.63
2023-02-11T10:33:11.396Z,6.35
2023-02-11T10:34:11.385Z,6.34
2023-02-11T10:35:11.445Z,6.52
2023-02-11T10:36:11.364Z,6.79
2023-02-11T10:37:11.330Z,6.60
2023-02-11T10:38:11.392Z,6.74
2023-02-11T10:39:11.314Z,6.65
2023-02-11T10:40:11.293Z,6.81
2023-02-11T10:41:11.315Z,6.52
2023-02-11T10:42:11.265Z,6.42
2023-02-11T10:43:11.260Z,6.63
2023-02-11T10:44:11.256Z,6.79
2023-02-11T10:45:11.283Z,6.91
2023-02-11T10:46:11.243Z,7.18
2023-02-11T10:47:11.220Z,7.39
2023-02-11T10:48:11.207Z,7.57
2023-02-11T10:49:11.240Z,7.49
2023-02-11T10:50:11.214Z,7.34
2023-02-11T10:51:14.074Z,7.13
2023-02-11T10:52:11.231Z,7.15
2023-02-11T10:53:11.150Z,6.70
2023-02-11T10:54:13.594Z,6.70
2023-02-11T10:55:11.129Z,6.91
2023-02-11T10:56:11.125Z,7.03
2023-02-11T10:57:11.120Z,7.19
2023-02-11T10:58:11.119Z,6.97
2023-02-11T10:59:11.080Z,6.91
2023-02-11T11:00:11.071Z,7.21
2023-02-11T11:01:23.788Z,7.28
2023-02-11T11:02:12.233Z,7.18
2023-02-11T11:03:11.083Z,7.04
2023-02-11T11:04:11.038Z,6.92
2023-02-11T11:05:11.037Z,6.85
2023-02-11T11:06:11.012Z,6.75
2023-02-11T11:07:11.001Z,6.97
2023-02-11T11:08:11.058Z,7.13
2023-02-11T11:09:10.980Z,6.96
2023-02-11T11:10:10.984Z,7.22
2023-02-11T11:11:10.987Z,7.54
2023-02-11T11:12:10.979Z,7.83
2023-02-11T11:13:10.945Z,8.46
2023-02-11T11:14:10.982Z,8.99
2023-02-11T11:15:10.919Z,9.50
2023-02-11T11:16:10.966Z,9.91
2023-02-11T11:17:15.710Z,10.34
2023-02-11T11:18:20.861Z,10.55
2023-02-11T11:19:11.916Z,10.52
2023-02-11T11:20:10.855Z,9.99
2023-02-11T11:21:10.868Z,9.48
2023-02-11T11:22:10.866Z,9.22
2023-02-11T11:23:10.840Z,9.18
2023-02-11T11:24:10.894Z,8.93
2023-02-11T11:25:10.801Z,9.03
2023-02-11T11:26:10.829Z,9.03
2023-02-11T11:27:10.875Z,9.14
2023-02-11T11:28:10.830Z,9.09
2023-02-11T11:29:10.834Z,9.16
2023-02-11T11:30:10.824Z,8.98
2023-02-11T11:31:10.861Z,8.93
2023-02-11T11:32:10.971Z,8.83
2023-02-11T11:33:10.715Z,8.41
2023-02-11T11:34:10.706Z,8.10
2023-02-11T11:35:10.707Z,8.09
2023-02-11T11:36:10.684Z,7.61
2023-02-11T11:37:10.726Z,7.61
2023-02-11T11:38:10.693Z,7.77
2023-02-11T11:39:10.641Z,7.87
2023-02-11T11:40:10.668Z,7.57
2023-02-11T11:41:10.627Z,7.69
2023-02-11T11:42:10.615Z,7.91
2023-02-11T11:43:10.602Z,7.64
2023-02-11T11:44:10.590Z,7.42
2023-02-11T11:45:10.583Z,7.52
2023-02-11T11:46:10.647Z,7.58
2023-02-11T11:47:10.569Z,7.64
2023-02-11T11:48:10.558Z,7.68
2023-02-11T11:49:10.601Z,7.60
2023-02-11T11:50:10.530Z,7.77
2023-02-11T11:51:10.522Z,7.64
2023-02-11T11:52:10.756Z,7.31
2023-02-11T11:53:10.509Z,7.37
2023-02-11T11:54:10.480Z,7.62
2023-02-11T11:55:10.474Z,7.96
2023-02-11T11:56:10.490Z,8.17
2023-02-11T11:57:10.541Z,8.47
2023-02-11T11:58:10.474Z,8.68
2023-02-11T11:59:10.428Z,8.57
2023-02-11T12:00:10.422Z,8.52
2023-02-11T12:01:10.443Z,8.62
2023-02-11T12:02:10.488Z,8.83
2023-02-11T12:03:10.458Z,9.06
2023-02-11T12:04:10.382Z,9.16
2023-02-11T12:05:10.393Z,9.04
2023-02-11T12:06:10.371Z,9.11
2023-02-11T12:07:10.346Z,9.15
2023-02-11T12:08:10.364Z,9.27
2023-02-11T12:09:10.342Z,9.36
2023-02-11T12:10:10.408Z,9.42
2023-02-11T12:11:10.354Z,8.70
2023-02-11T12:12:10.329Z,8.35
2023-02-11T12:13:10.278Z,8.38
2023-02-11T12:14:10.341Z,8.24
2023-02-11T12:15:10.294Z,8.42
2023-02-11T12:16:10.337Z,8.53
2023-02-11T12:17:10.245Z,8.37
2023-02-11T12:18:10.275Z,8.47
2023-02-11T12:19:10.265Z,8.59
2023-02-11T12:20:10.214Z,8.71
2023-02-11T12:21:10.193Z,8.93
2023-02-11T12:22:10.220Z,8.99
2023-02-11T12:23:10.163Z,9.09
2023-02-11T12:24:10.194Z,9.24
2023-02-11T12:25:10.209Z,9.15
2023-02-11T12:26:10.137Z,9.18
2023-02-11T12:27:10.192Z,8.98
2023-02-11T12:28:10.192Z,9.11
2023-02-11T12:29:10.106Z,9.23
2023-02-11T12:30:10.095Z,9.45
2023-02-11T12:31:12.163Z,9.22
2023-02-11T12:32:10.201Z,9.48
2023-02-11T12:33:10.125Z,9.67
2023-02-11T12:34:10.054Z,10.14
2023-02-11T12:35:10.043Z,10.27
2023-02-11T12:36:10.052Z,10.23
2023-02-11T12:37:10.011Z,10.28
2023-02-11T12:38:10.048Z,10.35
2023-02-11T12:39:10.124Z,10.38
2023-02-11T12:40:10.010Z,10.70
2023-02-11T12:41:10.185Z,10.95
2023-02-11T12:42:09.967Z,11.16
2023-02-11T12:43:09.983Z,11.20
2023-02-11T12:44:10.044Z,11.09
2023-02-11T12:45:09.949Z,10.90
2023-02-11T12:46:10.040Z,10.31
2023-02-11T12:47:14.802Z,10.16
2023-02-11T12:48:09.899Z,10.34
2023-02-11T12:49:09.884Z,10.09
2023-02-11T12:50:09.882Z,10.18
2023-02-11T12:51:09.872Z,10.73
2023-02-11T12:52:09.864Z,11.05
2023-02-11T12:53:09.999Z,11.16
2023-02-11T12:54:09.846Z,11.30
2023-02-11T12:55:09.915Z,11.33
2023-02-11T12:56:09.814Z,11.66
2023-02-11T12:57:09.854Z,11.89
2023-02-11T12:58:09.811Z,11.97
2023-02-11T12:59:11.874Z,11.88
2023-02-11T13:00:09.787Z,11.15